sensor_id;sensor_type;location;lat;lon;timestamp;P1;durP1;ratioP1;P2;durP2;ratioP2
83121;SDS011;73002;47.238;9.006;2024-01-16T06:16:11;13.05;;;6.50;;
83121;SDS011;73002;47.238;9.006;2024-01-16T06:18:36;14.30;;;6.53;;
83121;SDS011;73002;47.238;9.006;2024-01-16T06:21:02;11.00;;;6.07;;
83121;SDS011;73002;47.238;9.006;2024-01-16T08:01:08;13.70;;;7.13;;
83121;SDS011;73002;47.238;9.006;2024-01-16T08:03:38;11.70;;;6.30;;
83121;SDS011;73002;47.238;9.006;2024-01-16T08:06:03;12.27;;;6.75;;
83121;SDS011;73002;47.238;9.006;2024-01-16T08:08:29;14.90;;;6.40;;
83121;SDS011;73002;47.238;9.006;2024-01-16T08:34:12;13.07;;;7.60;;
83121;SDS011;73002;47.238;9.006;2024-01-16T08:36:38;12.63;;;6.90;;
83121;SDS011;73002;47.238;9.006;2024-01-16T08:39:05;10.98;;;6.53;;
83121;SDS011;73002;47.238;9.006;2024-01-16T08:41:30;10.02;;;6.88;;
83121;SDS011;73002;47.238;9.006;2024-01-16T08:43:56;10.15;;;7.15;;
83121;SDS011;73002;47.238;9.006;2024-01-16T08:46:25;10.45;;;7.03;;
83121;SDS011;73002;47.238;9.006;2024-01-16T08:48:50;10.85;;;7.13;;
83121;SDS011;73002;47.238;9.006;2024-01-16T08:51:20;10.52;;;6.78;;
83121;SDS011;73002;47.238;9.006;2024-01-16T08:53:45;10.73;;;6.80;;
83121;SDS011;73002;47.238;9.006;2024-01-16T09:01:21;9.57;;;6.22;;
83121;SDS011;73002;47.238;9.006;2024-01-16T09:03:46;8.60;;;6.25;;
83121;SDS011;73002;47.238;9.006;2024-01-16T09:06:12;8.98;;;6.47;;
83121;SDS011;73002;47.238;9.006;2024-01-16T09:08:38;10.52;;;7.75;;
83121;SDS011;73002;47.238;9.006;2024-01-16T09:11:03;9.57;;;6.43;;
83121;SDS011;73002;47.238;9.006;2024-01-16T09:16:04;10.65;;;7.20;;
83121;SDS011;73002;47.238;9.006;2024-01-16T09:18:29;9.27;;;6.80;;
83121;SDS011;73002;47.238;9.006;2024-01-16T09:20:55;8.50;;;6.72;;
83121;SDS011;73002;47.238;9.006;2024-01-16T09:23:23;9.48;;;6.78;;
83121;SDS011;73002;47.238;9.006;2024-01-16T09:25:49;9.10;;;6.38;;
83121;SDS011;73002;47.238;9.006;2024-01-16T09:28:14;9.02;;;6.25;;
83121;SDS011;73002;47.238;9.006;2024-01-16T09:30:41;8.60;;;6.45;;
83121;SDS011;73002;47.238;9.006;2024-01-16T09:33:07;7.65;;;6.15;;
83121;SDS011;73002;47.238;9.006;2024-01-16T09:35:34;8.55;;;6.45;;
83121;SDS011;73002;47.238;9.006;2024-01-16T09:38:00;9.52;;;7.50;;
83121;SDS011;73002;47.238;9.006;2024-01-16T09:40:25;9.13;;;7.15;;
83121;SDS011;73002;47.238;9.006;2024-01-16T09:42:51;8.32;;;6.68;;
83121;SDS011;73002;47.238;9.006;2024-01-16T09:45:19;8.52;;;6.38;;
83121;SDS011;73002;47.238;9.006;2024-01-16T09:47:42;9.73;;;7.27;;
83121;SDS011;73002;47.238;9.006;2024-01-16T09:50:08;11.00;;;7.82;;
83121;SDS011;73002;47.238;9.006;2024-01-16T09:52:33;10.00;;;7.70;;
83121;SDS011;73002;47.238;9.006;2024-01-16T09:55:00;10.13;;;7.35;;
83121;SDS011;73002;47.238;9.006;2024-01-16T09:57:26;10.48;;;7.53;;
83121;SDS011;73002;47.238;9.006;2024-01-16T09:59:54;8.53;;;6.37;;
83121;SDS011;73002;47.238;9.006;2024-01-16T10:02:23;10.80;;;7.18;;
83121;SDS011;73002;47.238;9.006;2024-01-16T10:04:48;9.80;;;7.10;;
83121;SDS011;73002;47.238;9.006;2024-01-16T10:07:14;10.18;;;6.70;;
83121;SDS011;73002;47.238;9.006;2024-01-16T10:09:41;10.43;;;7.10;;
83121;SDS011;73002;47.238;9.006;2024-01-16T10:12:06;9.07;;;6.82;;
83121;SDS011;73002;47.238;9.006;2024-01-16T10:19:49;9.93;;;7.25;;
83121;SDS011;73002;47.238;9.006;2024-01-16T11:57:53;9.07;;;6.53;;
83121;SDS011;73002;47.238;9.006;2024-01-16T12:00:31;10.10;;;6.78;;
83121;SDS011;73002;47.238;9.006;2024-01-16T12:03:03;8.82;;;6.05;;
83121;SDS011;73002;47.238;9.006;2024-01-16T12:28:49;8.75;;;6.15;;
83121;SDS011;73002;47.238;9.006;2024-01-16T12:31:19;10.98;;;6.85;;
83121;SDS011;73002;47.238;9.006;2024-01-16T12:33:44;9.93;;;6.82;;
